createdAt,value
2019-04-21T00:01:12.705Z,102174.31
2019-04-21T00:03:50.225Z,102167.63
2019-04-21T00:06:36.992Z,102168.45
2019-04-21T00:09:12.855Z,102168.58
2019-04-21T00:11:41.018Z,102161.85
2019-04-21T00:14:05.637Z,102163.66
2019-04-21T00:16:34.703Z,102168.09
2019-04-21T00:19:29.868Z,102161.77
2019-04-21T00:22:08.627Z,102159.97
2019-04-21T00:24:45.070Z,102160.60
2019-04-21T00:27:21.420Z,102162.58
2019-04-21T00:29:51.884Z,102164.91
2019-04-21T00:32:22.003Z,102161.79
2019-04-21T00:34:43.274Z,102155.50
2019-04-21T00:37:20.744Z,102150.66
2019-04-21T00:40:05.958Z,102147.59
2019-04-21T00:42:34.554Z,102144.45
2019-04-21T00:45:01.856Z,102144.73
2019-04-21T00:47:48.048Z,102143.23
2019-04-21T00:50:10.839Z,102146.03
2019-04-21T00:52:56.522Z,102135.83
2019-04-21T00:55:33.942Z,102136.31
2019-04-21T00:58:03.244Z,102128.03
2019-04-21T01:00:36.366Z,102126.56
2019-04-21T01:03:04.649Z,102126.16
2019-04-21T01:05:43.918Z,102128.64
2019-04-21T01:08:09.419Z,102127.31
2019-04-21T01:10:31.987Z,102123.05
2019-04-21T01:13:20.008Z,102118.17
2019-04-21T01:15:49.721Z,102116.03
2019-04-21T01:18:16.766Z,102120.36
2019-04-21T01:20:29.278Z,102118.53
2019-04-21T01:23:00.249Z,102118.19
2019-04-21T01:25:39.326Z,102118.56
2019-04-21T01:28:18.856Z,102122.94
2019-04-21T01:30:56.883Z,102122.11
2019-04-21T01:33:36.126Z,102129.47
2019-04-21T01:35:59.557Z,102126.70
2019-04-21T01:38:34.265Z,102124.53
2019-04-21T01:41:07.646Z,102129.87
2019-04-21T01:43:33.713Z,102129.87
2019-04-21T01:46:11.223Z,102131.69
2019-04-21T01:48:40.027Z,102136.69
2019-04-21T01:51:14.245Z,102134.55
2019-04-21T01:54:07.182Z,102126.66
2019-04-21T01:56:46.550Z,102133.68
2019-04-21T01:59:06.608Z,102129.77
2019-04-21T02:01:54.182Z,102126.52
2019-04-21T02:04:29.441Z,102119.84
2019-04-21T02:07:01.004Z,102116.39
2019-04-21T02:09:34.009Z,102118.91
2019-04-21T02:12:10.598Z,102118.67
2019-04-21T02:14:45.865Z,102117.69
2019-04-21T02:17:13.199Z,102112.80
2019-04-21T02:19:45.099Z,102118.70
2019-04-21T02:22:19.170Z,102114.41
2019-04-21T02:24:56.822Z,102113.58
2019-04-21T02:27:23.437Z,102114.42
2019-04-21T02:30:02.790Z,102109.05
2019-04-21T02:32:43.498Z,102109.05
2019-04-21T02:38:05.858Z,102108.20
2019-04-21T02:42:56.087Z,102100.50
2019-04-21T02:45:25.047Z,102102.58
2019-04-21T02:48:06.977Z,102095.41
2019-04-21T02:50:28.756Z,102091.27
2019-04-21T02:53:09.690Z,102089.98
2019-04-21T02:55:30.332Z,102087.72
2019-04-21T02:58:17.853Z,102076.41
2019-04-21T03:00:55.594Z,102075.28
2019-04-21T03:03:56.243Z,102070.89
2019-04-21T03:09:29.797Z,102067.17
2019-04-21T03:11:56.011Z,102063.47
2019-04-21T03:14:51.332Z,102055.05
2019-04-21T03:16:47.237Z,102060.48
2019-04-21T03:19:44.000Z,102052.72
2019-04-21T03:22:06.734Z,102052.78
2019-04-21T03:25:01.341Z,102050.55
2019-04-21T03:27:17.189Z,102047.05
2019-04-21T03:29:38.559Z,102046.26
2019-04-21T03:35:25.707Z,102032.78
2019-04-21T03:39:50.796Z,102032.08
2019-04-21T03:42:26.865Z,102027.50
2019-04-21T03:52:30.248Z,102018.50
2019-04-21T03:58:19.688Z,102019.50
2019-04-21T04:04:03.468Z,102013.91
2019-04-21T04:06:27.342Z,102013.21
2019-04-21T04:09:21.387Z,102018.75
2019-04-21T04:11:51.353Z,102020.02
2019-04-21T04:16:57.029Z,102013.78
2019-04-21T04:19:30.150Z,102018.11
2019-04-21T04:31:55.406Z,102005.05
2019-04-21T04:34:40.753Z,101998.20
2019-04-21T04:39:48.513Z,101994.35
2019-04-21T04:42:41.629Z,101998.65
2019-04-21T04:50:01.927Z,102002.92
2019-04-21T04:52:45.686Z,101994.09
2019-04-21T04:55:19.029Z,101992.15
2019-04-21T05:00:25.784Z,101989.50
2019-04-21T05:05:30.076Z,101987.31
2019-04-21T05:08:28.762Z,101986.83
2019-04-21T05:10:41.136Z,101984.56
2019-04-21T05:13:06.087Z,101984.28
2019-04-21T05:15:34.213Z,101982.81
2019-04-21T05:18:05.288Z,101978.38
2019-04-21T05:20:48.188Z,101976.72
2019-04-21T05:23:05.910Z,101977.49
2019-04-21T05:25:33.887Z,101975.56
2019-04-21T05:28:06.448Z,101970.69
2019-04-21T05:30:58.444Z,101970.67
2019-04-21T05:33:38.079Z,101976.05
2019-04-21T05:36:28.962Z,101976.69
2019-04-21T05:39:30.229Z,101968.44
2019-04-21T05:41:54.244Z,101970.00
2019-04-21T05:44:57.161Z,101969.09
2019-04-21T05:47:20.173Z,101969.36
2019-04-21T05:49:49.757Z,101971.47
2019-04-21T05:52:19.872Z,101964.20
2019-04-21T05:55:06.346Z,101964.20
2019-04-21T05:57:28.892Z,101963.75
2019-04-21T05:59:59.455Z,101968.59
2019-04-21T06:02:49.573Z,101966.06
2019-04-21T06:07:53.728Z,101963.15
2019-04-21T06:10:10.625Z,101952.44
2019-04-21T06:12:51.060Z,101953.11
2019-04-21T06:15:13.787Z,101953.11
2019-04-21T06:17:48.846Z,101957.50
2019-04-21T06:20:21.300Z,101960.88
2019-04-21T06:22:56.836Z,101955.23
2019-04-21T06:27:59.971Z,101951.46
2019-04-21T06:30:34.834Z,101947.86
2019-04-21T06:33:11.727Z,101948.13
2019-04-21T06:38:54.089Z,101948.92
2019-04-21T06:41:27.728Z,101949.20
2019-04-21T06:46:33.536Z,101948.18
2019-04-21T06:51:32.342Z,101928.87
2019-04-21T06:54:09.173Z,101928.87
2019-04-21T06:56:41.257Z,101924.94
2019-04-21T06:59:23.453Z,101929.44
2019-04-21T07:01:54.762Z,101925.39
2019-04-21T07:06:48.214Z,101909.83
2019-04-21T07:09:30.100Z,101913.38
2019-04-21T07:11:52.855Z,101908.03
2019-04-21T07:17:07.386Z,101911.98
2019-04-21T07:19:35.210Z,101912.50
2019-04-21T07:22:04.288Z,101900.34
2019-04-21T07:24:41.743Z,101900.02
2019-04-21T07:27:08.798Z,101907.14
2019-04-21T07:29:47.496Z,101911.22
2019-04-21T07:32:12.123Z,101911.22
2019-04-21T07:34:46.980Z,101906.83
2019-04-21T07:37:12.535Z,101905.05
2019-04-21T07:39:46.913Z,101888.75
2019-04-21T07:42:13.504Z,101868.59
2019-04-21T07:44:45.976Z,101849.80
2019-04-21T07:47:27.178Z,101844.35
2019-04-21T07:50:22.647Z,101844.35
2019-04-21T07:52:48.798Z,101851.69
2019-04-21T07:57:45.671Z,101842.92
2019-04-21T08:02:53.967Z,101827.86
2019-04-21T08:05:27.981Z,101826.70
2019-04-21T08:07:55.756Z,101820.81
2019-04-21T08:10:33.693Z,101824.52
2019-04-21T08:13:14.676Z,101806.63
2019-04-21T08:15:40.151Z,101815.25
2019-04-21T08:18:13.501Z,101812.64
2019-04-21T08:20:41.910Z,101808.12
2019-04-21T08:23:20.394Z,101806.26
2019-04-21T08:26:04.650Z,101803.05
2019-04-21T08:28:22.494Z,101796.16
2019-04-21T08:30:56.778Z,101793.45
2019-04-21T08:33:32.001Z,101790.13
2019-04-21T08:36:16.141Z,101784.77
2019-04-21T08:38:35.657Z,101784.77
2019-04-21T08:46:06.701Z,101775.31
2019-04-21T08:48:46.567Z,101770.39
2019-04-21T08:54:01.391Z,101771.86
2019-04-21T08:56:52.697Z,101762.57
2019-04-21T08:59:43.814Z,101764.96
2019-04-21T09:02:43.081Z,101767.88
2019-04-21T09:05:15.433Z,101763.22
2019-04-21T09:07:44.693Z,101753.98
2019-04-21T09:10:17.595Z,101745.61
2019-04-21T09:12:57.232Z,101748.58
2019-04-21T09:15:28.036Z,101759.65
2019-04-21T09:18:01.705Z,101751.47
2019-04-21T09:20:46.012Z,101746.31
2019-04-21T09:23:11.398Z,101743.65
2019-04-21T09:25:46.550Z,101736.86
2019-04-21T09:28:13.964Z,101736.86
2019-04-21T09:30:33.814Z,101736.95
2019-04-21T09:33:02.387Z,101729.48
2019-04-21T09:35:33.532Z,101722.97
2019-04-21T09:38:16.229Z,101720.94
2019-04-21T09:40:43.892Z,101730.36
2019-04-21T09:43:13.391Z,101726.80
2019-04-21T09:45:45.309Z,101727.59
2019-04-21T09:48:20.689Z,101725.64
2019-04-21T09:50:50.416Z,101719.47
2019-04-21T09:53:29.440Z,101718.63
2019-04-21T09:55:59.350Z,101721.48
2019-04-21T09:58:32.826Z,101709.62
2019-04-21T10:01:10.790Z,101720.15
2019-04-21T10:03:39.698Z,101709.16
2019-04-21T10:06:02.844Z,101703.16
2019-04-21T10:08:34.169Z,101692.73
2019-04-21T10:11:05.399Z,101692.72
2019-04-21T10:13:36.330Z,101690.73
2019-04-21T10:16:26.086Z,101689.76
2019-04-21T10:18:56.817Z,101675.52
2019-04-21T10:21:28.045Z,101669.78
2019-04-21T10:23:59.859Z,101659.93
2019-04-21T10:26:30.573Z,101667.04
2019-04-21T10:29:08.620Z,101657.78
2019-04-21T10:31:34.541Z,101659.38
2019-04-21T10:34:07.351Z,101643.40
2019-04-21T10:36:37.956Z,101660.34
2019-04-21T10:39:09.418Z,101650.11
2019-04-21T10:41:41.539Z,101650.11
2019-04-21T10:44:13.489Z,101651.58
2019-04-21T10:46:46.905Z,101639.82
2019-04-21T10:49:17.058Z,101631.34
2019-04-21T10:51:48.985Z,101634.43
2019-04-21T10:54:21.856Z,101628.28
2019-04-21T10:56:52.624Z,101633.44
2019-04-21T10:59:25.013Z,101627.22
2019-04-21T11:01:56.785Z,101626.41
2019-04-21T11:04:36.325Z,101611.91
2019-04-21T11:07:16.339Z,101594.23
2019-04-21T11:09:46.289Z,101605.05
2019-04-21T11:12:17.614Z,101593.98
2019-04-21T11:14:49.449Z,101594.37
2019-04-21T11:17:20.109Z,101601.77
2019-04-21T11:19:51.375Z,101591.25
2019-04-21T11:22:23.046Z,101591.13
2019-04-21T11:24:53.780Z,101584.68
2019-04-21T11:27:24.731Z,101590.22
2019-04-21T11:29:55.776Z,101589.46
2019-04-21T11:32:27.331Z,101595.09
2019-04-21T11:35:01.222Z,101586.66
2019-04-21T11:37:34.507Z,101597.50
2019-04-21T11:40:10.720Z,101595.39
2019-04-21T11:42:40.150Z,101591.23
2019-04-21T11:45:14.692Z,101598.03
2019-04-21T11:48:04.238Z,101598.03
2019-04-21T11:50:35.134Z,101601.09
2019-04-21T11:53:07.076Z,101603.28
2019-04-21T11:55:42.739Z,101598.03
2019-04-21T11:58:10.359Z,101592.91
2019-04-21T12:00:42.103Z,101592.63
2019-04-21T12:03:15.253Z,101582.91
2019-04-21T12:05:45.546Z,101582.91
2019-04-21T12:08:24.931Z,101577.28
2019-04-21T12:10:49.262Z,101577.33
2019-04-21T12:13:20.432Z,101578.60
2019-04-21T12:15:52.848Z,101568.09
2019-04-21T12:18:26.321Z,101568.09
2019-04-21T12:20:57.550Z,101565.43
2019-04-21T12:23:28.197Z,101555.54
2019-04-21T12:26:01.102Z,101558.16
2019-04-21T12:28:32.408Z,101554.95
2019-04-21T12:31:05.401Z,101542.47
2019-04-21T12:33:54.122Z,101546.72
2019-04-21T12:36:24.495Z,101539.38
2019-04-21T12:38:59.317Z,101535.40
2019-04-21T12:41:28.693Z,101536.35
2019-04-21T12:44:00.465Z,101527.52
2019-04-21T12:46:32.124Z,101526.98
2019-04-21T12:49:04.060Z,101526.93
2019-04-21T12:51:35.625Z,101524.30
2019-04-21T12:54:08.033Z,101520.06
2019-04-21T12:56:38.850Z,101521.09
2019-04-21T12:59:09.994Z,101515.90
2019-04-21T13:01:41.157Z,101504.64
2019-04-21T13:04:11.826Z,101513.39
2019-04-21T13:06:43.466Z,101497.77
2019-04-21T13:09:18.323Z,101490.11
2019-04-21T13:11:46.873Z,101484.81
2019-04-21T13:14:17.978Z,101486.06
2019-04-21T13:16:49.673Z,101476.38
2019-04-21T13:19:21.064Z,101476.91
2019-04-21T13:21:52.431Z,101470.53
2019-04-21T13:24:24.120Z,101462.77
2019-04-21T13:26:59.565Z,101462.77
2019-04-21T13:29:28.421Z,101457.46
2019-04-21T13:32:03.658Z,101449.42
2019-04-21T13:34:33.758Z,101447.86
2019-04-21T13:37:05.985Z,101436.23
2019-04-21T13:40:07.556Z,101437.17
2019-04-21T13:42:26.795Z,101431.28
2019-04-21T13:44:56.196Z,101433.48
2019-04-21T13:47:25.228Z,101427.37
2019-04-21T13:49:57.877Z,101422.46
2019-04-21T13:52:28.976Z,101415.59
2019-04-21T13:54:59.626Z,101413.45
2019-04-21T13:57:30.420Z,101414.34
2019-04-21T14:00:01.516Z,101407.11
2019-04-21T14:02:33.024Z,101401.73
2019-04-21T14:05:08.691Z,101403.63
2019-04-21T14:07:38.592Z,101389.70
2019-04-21T14:10:12.409Z,101388.70
2019-04-21T14:12:42.801Z,101382.52
2019-04-21T14:15:14.648Z,101377.97
2019-04-21T14:17:46.732Z,101378.97
2019-04-21T14:20:19.523Z,101367.10
2019-04-21T14:22:50.225Z,101368.09
2019-04-21T14:25:21.644Z,101353.34
2019-04-21T14:27:54.505Z,101353.34
2019-04-21T14:30:28.121Z,101358.79
2019-04-21T14:33:00.299Z,101356.08
2019-04-21T14:35:30.983Z,101353.34
2019-04-21T14:38:02.731Z,101332.79
2019-04-21T14:40:36.681Z,101344.86
2019-04-21T14:43:10.177Z,101347.16
2019-04-21T14:46:00.971Z,101335.79
2019-04-21T14:48:48.932Z,101334.92
2019-04-21T14:51:37.009Z,101326.72
2019-04-21T14:54:26.738Z,101326.86
2019-04-21T14:56:57.678Z,101326.17
2019-04-21T14:59:28.880Z,101322.43
2019-04-21T15:01:59.972Z,101313.41
2019-04-21T15:04:31.691Z,101313.41
2019-04-21T15:07:03.337Z,101314.41
2019-04-21T15:09:35.893Z,101310.24
2019-04-21T15:12:07.853Z,101312.28
2019-04-21T15:14:40.161Z,101304.50
2019-04-21T15:17:10.953Z,101302.55
2019-04-21T15:19:42.835Z,101302.81
2019-04-21T15:22:14.511Z,101297.50
2019-04-21T15:24:46.286Z,101299.17
2019-04-21T15:27:17.159Z,101293.17
2019-04-21T15:29:48.905Z,101287.76
2019-04-21T15:32:19.479Z,101280.89
2019-04-21T15:34:51.972Z,101280.89
2019-04-21T15:37:24.134Z,101284.09
2019-04-21T15:39:54.533Z,101273.08
2019-04-21T15:42:26.342Z,101265.53
2019-04-21T15:44:56.908Z,101272.29
2019-04-21T15:47:29.574Z,101266.05
2019-04-21T15:50:09.107Z,101263.33
2019-04-21T15:52:35.841Z,101268.51
2019-04-21T15:55:14.944Z,101260.33
2019-04-21T15:58:07.351Z,101248.57
2019-04-21T16:00:49.671Z,101251.36
2019-04-21T16:03:20.741Z,101248.81
2019-04-21T16:05:51.014Z,101244.44
2019-04-21T16:08:22.016Z,101246.37
2019-04-21T16:10:57.110Z,101237.69
2019-04-21T16:13:27.708Z,101245.73
2019-04-21T16:15:58.798Z,101237.99
2019-04-21T16:18:32.548Z,101243.78
2019-04-21T16:21:04.247Z,101247.41
2019-04-21T16:23:36.087Z,101240.16
2019-04-21T16:26:06.797Z,101238.45
2019-04-21T16:28:42.082Z,101227.98
2019-04-21T16:31:12.160Z,101225.91
2019-04-21T16:33:43.225Z,101225.91
2019-04-21T16:36:15.422Z,101223.30
2019-04-21T16:38:47.323Z,101221.61
2019-04-21T16:41:18.306Z,101222.55
2019-04-21T16:43:51.388Z,101217.03
2019-04-21T16:46:23.146Z,101214.53
2019-04-21T16:48:53.876Z,101207.16
2019-04-21T16:51:26.414Z,101209.02
2019-04-21T16:54:08.172Z,101193.15
2019-04-21T16:56:47.920Z,101193.15
2019-04-21T16:59:32.722Z,101196.69
2019-04-21T17:02:04.735Z,101194.17
2019-04-21T17:04:36.348Z,101199.95
2019-04-21T17:07:07.429Z,101195.73
2019-04-21T17:09:38.899Z,101198.88
2019-04-21T17:12:14.215Z,101196.37
2019-04-21T17:14:57.154Z,101192.13
2019-04-21T17:17:38.535Z,101193.96
2019-04-21T17:19:53.797Z,101192.31
2019-04-21T17:22:21.819Z,101191.57
2019-04-21T17:24:52.679Z,101186.00
2019-04-21T17:27:23.333Z,101183.03
2019-04-21T17:29:54.922Z,101178.29
2019-04-21T17:32:32.187Z,101181.12
2019-04-21T17:34:58.073Z,101181.12
2019-04-21T17:37:30.596Z,101178.98
2019-04-21T17:40:05.121Z,101182.59
2019-04-21T17:42:43.243Z,101180.58
2019-04-21T17:45:06.998Z,101182.91
2019-04-21T17:47:46.834Z,101188.26
2019-04-21T17:50:29.457Z,101175.70
2019-04-21T17:53:08.742Z,101171.93
2019-04-21T17:55:40.586Z,101178.73
2019-04-21T17:58:27.261Z,101178.73
2019-04-21T18:01:10.041Z,101175.69
2019-04-21T18:06:02.385Z,101177.23
2019-04-21T18:08:41.361Z,101182.14
2019-04-21T18:11:02.084Z,101187.88
2019-04-21T18:13:26.703Z,101181.41
2019-04-21T18:16:09.617Z,101189.74
2019-04-21T18:18:30.597Z,101190.33
2019-04-21T18:21:08.843Z,101192.14
2019-04-21T18:24:00.090Z,101191.78
2019-04-21T18:26:34.740Z,101189.72
2019-04-21T18:28:56.925Z,101192.41
2019-04-21T18:31:35.333Z,101198.95
2019-04-21T18:34:32.373Z,101200.70
2019-04-21T18:36:52.499Z,101204.59
2019-04-21T18:39:52.648Z,101198.52
2019-04-21T18:42:38.719Z,101194.69
2019-04-21T18:45:43.201Z,101193.44
2019-04-21T18:48:27.081Z,101208.22
2019-04-21T18:51:22.935Z,101202.20
2019-04-21T18:54:15.177Z,101198.77
2019-04-21T18:56:29.683Z,101201.39
2019-04-21T18:59:00.577Z,101199.69
2019-04-21T19:01:34.803Z,101199.69
2019-04-21T19:04:06.368Z,101200.55
2019-04-21T19:06:51.426Z,101200.55
2019-04-21T19:09:35.888Z,101206.62
2019-04-21T19:12:05.236Z,101207.04
2019-04-21T19:14:36.210Z,101214.41
2019-04-21T19:17:38.159Z,101209.63
2019-04-21T19:20:02.631Z,101210.92
2019-04-21T19:22:15.325Z,101208.33
2019-04-21T19:24:50.531Z,101213.53
2019-04-21T19:27:23.743Z,101213.09
2019-04-21T19:30:05.168Z,101213.50
2019-04-21T19:32:23.846Z,101210.89
2019-04-21T19:34:41.477Z,101212.60
2019-04-21T19:37:17.356Z,101210.86
2019-04-21T19:39:58.942Z,101206.92
2019-04-21T19:42:25.652Z,101208.18
2019-04-21T19:45:08.424Z,101206.86
2019-04-21T19:47:44.943Z,101209.02
2019-04-21T19:50:11.234Z,101208.11
2019-04-21T19:52:36.794Z,101210.66
2019-04-21T19:55:00.477Z,101214.52
2019-04-21T19:57:34.708Z,101209.67
2019-04-21T20:00:08.323Z,101210.93
2019-04-21T20:02:40.499Z,101201.83
2019-04-21T20:05:20.618Z,101196.64
2019-04-21T20:08:03.652Z,101186.64
2019-04-21T20:10:42.309Z,101194.44
2019-04-21T20:13:14.647Z,101187.47
2019-04-21T20:15:45.923Z,101182.70
2019-04-21T20:18:07.092Z,101180.05
2019-04-21T20:20:33.019Z,101173.55
2019-04-21T20:23:05.182Z,101174.79
2019-04-21T20:25:43.738Z,101168.28
2019-04-21T20:28:21.338Z,101169.11
2019-04-21T20:31:03.617Z,101166.47
2019-04-21T20:33:50.602Z,101164.72
2019-04-21T20:36:09.642Z,101161.21
2019-04-21T20:38:34.018Z,101163.75
2019-04-21T20:41:01.811Z,101157.67
2019-04-21T20:43:43.539Z,101158.07
2019-04-21T20:46:13.652Z,101156.30
2019-04-21T20:48:42.818Z,101154.10
2019-04-21T20:51:18.560Z,101158.84
2019-04-21T20:53:50.268Z,101155.34
2019-04-21T20:56:16.094Z,101148.02
2019-04-21T20:58:55.442Z,101149.66
2019-04-21T21:01:34.744Z,101154.83
2019-04-21T21:03:58.088Z,101147.45
2019-04-21T21:06:33.179Z,101147.45
2019-04-21T21:09:04.827Z,101147.88
2019-04-21T21:12:08.063Z,101137.03
2019-04-21T21:14:16.025Z,101142.19
2019-04-21T21:16:53.123Z,101133.94
2019-04-21T21:19:43.962Z,101136.52
2019-04-21T21:21:54.000Z,101141.64
2019-04-21T21:24:36.182Z,101139.47
2019-04-21T21:26:57.806Z,101136.00
2019-04-21T21:29:33.485Z,101138.56
2019-04-21T21:32:16.210Z,101132.51
2019-04-21T21:34:44.419Z,101139.44
2019-04-21T21:37:21.501Z,101132.03
2019-04-21T21:42:07.310Z,101134.41
2019-04-21T21:44:39.390Z,101136.05
2019-04-21T21:47:22.688Z,101130.53
2019-04-21T21:49:58.160Z,101130.53
2019-04-21T21:52:34.334Z,101135.98
2019-04-21T21:54:47.965Z,101138.44
2019-04-21T21:57:18.795Z,101137.94
2019-04-21T21:59:58.818Z,101128.81
2019-04-21T22:02:34.931Z,101130.92
2019-04-21T22:05:06.628Z,101124.38
2019-04-21T22:07:33.225Z,101123.50
2019-04-21T22:10:02.452Z,101127.00
2019-04-21T22:12:43.522Z,101124.84
2019-04-21T22:15:12.599Z,101122.20
2019-04-21T22:17:54.296Z,101121.63
2019-04-21T22:20:31.649Z,101118.53
2019-04-21T22:22:51.992Z,101123.18
2019-04-21T22:25:22.721Z,101127.79
2019-04-21T22:27:48.842Z,101123.45
2019-04-21T22:30:26.959Z,101123.91
2019-04-21T22:32:59.882Z,101126.09
2019-04-21T22:35:33.506Z,101124.42
2019-04-21T22:38:15.009Z,101124.75
2019-04-21T22:40:45.325Z,101128.09
2019-04-21T22:43:11.937Z,101123.15
2019-04-21T22:45:33.619Z,101132.55
2019-04-21T22:48:13.547Z,101125.93
2019-04-21T22:50:40.157Z,101127.88
2019-04-21T22:53:15.398Z,101130.28
2019-04-21T22:55:49.611Z,101133.58
2019-04-21T22:58:28.317Z,101127.52
2019-04-21T23:00:56.107Z,101125.70
2019-04-21T23:03:25.203Z,101121.60
2019-04-21T23:05:56.017Z,101116.73
2019-04-21T23:08:32.975Z,101117.92
2019-04-21T23:11:05.015Z,101121.14
2019-04-21T23:13:32.803Z,101119.20
2019-04-21T23:16:06.223Z,101121.63
2019-04-21T23:18:50.198Z,101113.34
2019-04-21T23:21:21.171Z,101114.56
2019-04-21T23:24:01.778Z,101111.52
2019-04-21T23:26:32.771Z,101106.77
2019-04-21T23:29:10.315Z,101106.70
2019-04-21T23:31:37.210Z,101112.48
2019-04-21T23:33:50.356Z,101112.25
2019-04-21T23:36:25.872Z,101110.70
2019-04-21T23:38:56.434Z,101108.66
2019-04-21T23:41:33.505Z,101106.21
2019-04-21T23:44:02.941Z,101104.28
2019-04-21T23:46:33.405Z,101096.25
2019-04-21T23:49:15.041Z,101101.56
2019-04-21T23:51:43.017Z,101099.00
2019-04-21T23:54:07.012Z,101097.05
2019-04-21T23:56:41.947Z,101096.17
2019-04-21T23:59:11.557Z,101093.47
